METAR Data
IDs: Format: Raw Decoded Include TAF

Data at: 0033 UTC 26 Oct 2021

KBPG 260015Z AUTO 17007KT 10SM CLR 27/05 A2991 RMK AO2 T02700050
KBPG 252355Z AUTO 18007KT 10SM CLR 29/05 A2991 RMK AO2 T02930051 10335 20291 403350110
KBPG 252335Z AUTO 19008KT 10SM CLR 31/05 A2991 RMK AO2 T03110050
KBPG 252315Z AUTO 21008KT 10SM CLR 32/05 A2991 RMK AO2 T03210048
KBPG 252255Z AUTO 19006KT 10SM CLR 33/05 A2990 RMK AO2 T03260050
KBPG 252235Z AUTO 21009KT 10SM CLR 33/05 A2991 RMK AO2 T03290050
KBPG 252215Z AUTO 19010KT 10SM CLR 33/06 A2991 RMK AO2 T03310055
KBPG 252155Z AUTO 19008KT 10SM CLR 33/06 A2991 RMK AO2 T03300062
KBPG 252135Z AUTO 18006KT 10SM CLR 33/07 A2992 RMK AO2 T03280067
KBPG 252115Z AUTO 18011KT 10SM CLR 33/07 A2992 RMK AO2 T03300068
KBPG 252055Z AUTO 17012G16KT 10SM CLR 33/07 A2993 RMK AO2 T03300071
KBPG 252035Z AUTO 20012G16KT 10SM CLR 33/06 A2993 RMK AO2 T03280063
KBPG 252015Z AUTO 20010KT 170V230 10SM CLR 32/07 A2994 RMK AO2 T03230066
KBPG 251955Z AUTO 16006KT 10SM CLR 32/07 A2994 RMK AO2 T03240071
KBPG 251935Z AUTO 19007G14KT 10SM CLR 32/07 A2995 RMK AO2 T03230068
KBPG 251915Z AUTO 20010G16KT 10SM CLR 32/06 A2997 RMK AO2 T03200057
KBPG 251855Z AUTO 19005KT 10SM CLR 32/06 A2997 RMK AO2 T03150060
KBPG 251835Z AUTO 19008KT 10SM CLR 31/05 A2999 RMK AO2 T03120053
KBPG 251815Z AUTO 18011G15KT 10SM CLR 31/05 A3000 RMK AO2 T03080053
KBPG 251755Z AUTO 20006KT 4SM HZ CLR 30/05 A3001 RMK AO2 T03010053 10304 20112
KBPG 251735Z AUTO 19009KT 10SM CLR 30/06 A3001 RMK AO2 T02970060
KBPG 251715Z AUTO 22005KT 10SM CLR 28/07 A3002 RMK AO2 T02840069
KBPG 251655Z AUTO 21006KT 10SM CLR 28/06 A3002 RMK AO2 T02790064
KBPG 251635Z AUTO 22005KT 10SM CLR 26/06 A3002 RMK AO2 T02610064
KBPG 251615Z AUTO 20006KT 10SM CLR 25/05 A3001 RMK AO2 T02480050
KBPG 251555Z AUTO 23004KT 10SM CLR 23/03 A3002 RMK AO2 T02320033
KBPG 251535Z AUTO 23004KT 10SM CLR 22/03 A3003 RMK AO2 T02160026
KBPG 251515Z AUTO 20006KT 10SM CLR 20/02 A3003 RMK AO2 T02050023
KBPG 251455Z AUTO 18007KT 10SM CLR 19/02 A3003 RMK AO2 T01920024
KBPG 251435Z AUTO 18007KT 10SM CLR 18/02 A3003 RMK AO2 T01800024
KBPG 251415Z AUTO 17006KT 10SM CLR 16/02 A3002 RMK AO2 T01640021
KBPG 251355Z AUTO 17005KT 10SM CLR 15/02 A3001 RMK AO2 T01500017
KBPG 251335Z AUTO 16006KT 10SM CLR 14/02 A3001 RMK AO2 T01410015
KBPG 251315Z AUTO 14004KT 10SM CLR 13/01 A3000 RMK AO2 T01270013
KBPG 251255Z AUTO 14006KT 10SM CLR 12/01 A3000 RMK AO2 T01240014
KBPG 251235Z AUTO 15005KT 10SM CLR 12/02 A3000 RMK AO2 T01230015
KBPG 251215Z AUTO 15004KT 10SM CLR 12/02 A3000 RMK AO2 T01170018
KBPG 251155Z AUTO 14003KT 10SM CLR 11/02 A3000 RMK AO2 T01120017 10216 20110
KBPG 251135Z AUTO 00000KT 10SM CLR 12/02 A2999 RMK AO2 T01180021
KBPG 251115Z AUTO 16004KT 10SM CLR 12/02 A2998 RMK AO2 T01180018
KBPG 251055Z AUTO 00000KT 10SM CLR 12/02 A2998 RMK AO2 T01190017
KBPG 251035Z AUTO 00000KT 10SM CLR 14/02 A2998 RMK AO2 T01380016
KBPG 251015Z AUTO 00000KT 10SM CLR 15/02 A2997 RMK AO2 T01490017
KBPG 250955Z AUTO 14004KT 10SM CLR 14/02 A2997 RMK AO2 T01420019
KBPG 250935Z AUTO 11007KT 10SM CLR 14/02 A2997 RMK AO2 T01420016
KBPG 250915Z AUTO 10007KT 10SM CLR 14/01 A2997 RMK AO2 T01430014
KBPG 250855Z AUTO 08007KT 10SM CLR 13/01 A2998 RMK AO2 T01330013
KBPG 250835Z AUTO 07004KT 10SM CLR 14/01 A2998 RMK AO2 T01390010
KBPG 250815Z AUTO 00000KT 10SM CLR 15/01 A2998 RMK AO2 T01470012
KBPG 250755Z AUTO 00000KT 10SM CLR 15/01 A2998 RMK AO2 T01540014
KBPG 250735Z AUTO 12003KT 10SM CLR 18/01 A2998 RMK AO2 T01760011
KBPG 250715Z AUTO 09004KT 10SM CLR 18/01 A2998 RMK AO2 T01760009
KBPG 250655Z AUTO 07003KT 10SM CLR 20/01 A2998 RMK AO2 T01960010
KBPG 250635Z AUTO 12004KT 10SM CLR 17/02 A2997 RMK AO2 T01690016
KBPG 250615Z AUTO 14006KT 10SM CLR 18/01 A2997 RMK AO2 T01770009
KBPG 250555Z AUTO 12004KT 10SM CLR 17/01 A2997 RMK AO2 T01660010 10285 20153
KBPG 250535Z AUTO 12005KT 10SM CLR 16/01 A2996 RMK AO2 T01640012
KBPG 250515Z AUTO 17006KT 10SM CLR 17/01 A2997 RMK AO2 T01670011
KBPG 250455Z AUTO 13004KT 10SM CLR 16/02 A2996 RMK AO2 T01590020
KBPG 250435Z AUTO 00000KT 10SM CLR 18/01 A2996 RMK AO2 T01820009
KBPG 250415Z AUTO 00000KT 10SM CLR 18/00 A2996 RMK AO2 T01850005
KBPG 250355Z AUTO 00000KT 10SM CLR 21/00 A2996 RMK AO2 T02071004
KBPG 250335Z AUTO 00000KT 10SM CLR 21/00 A2994 RMK AO2 T02071003
KBPG 250315Z AUTO 09003KT 10SM CLR 19/00 A2993 RMK AO2 T01900003
KBPG 250255Z AUTO 08006KT 10SM CLR 19/01 A2993 RMK AO2 T01940007
KBPG 250235Z AUTO 10005KT 10SM CLR 20/01 A2992 RMK AO2 T02000007
KBPG 250215Z AUTO 09006KT 10SM CLR 20/01 A2992 RMK AO2 T02000008
KBPG 250155Z AUTO 08007KT 10SM CLR 20/01 A2991 RMK AO2 T02000012
KBPG 250135Z AUTO 08007KT 10SM CLR 21/02 A2991 RMK AO2 T02070016
KBPG 250115Z AUTO 08007KT 10SM CLR 21/02 A2990 RMK AO2 T02110017
KBPG 250055Z AUTO 08006KT 10SM CLR 21/02 A2989 RMK AO2 T02150022
KBPG 250035Z AUTO 08005KT 10SM CLR 23/02 A2989 RMK AO2 T02260024
KBPG 250015Z AUTO 00000KT 10SM CLR 26/01 A2988 RMK AO2 T02600012
KBPG 242355Z AUTO 00000KT 10SM CLR 29/M01 A2987 RMK AO2 T02871010 10310 20282 403100175
KBPG 242335Z AUTO 00000KT 10SM CLR 30/00 A2987 RMK AO2 T03011004
KBPG 242315Z AUTO 00000KT 10SM CLR 30/M01 A2986 RMK AO2 T03041011
KBPG 242255Z AUTO 00000KT 5SM HZ CLR 30/M01 A2987 RMK AO2 T02981013
KBPG 242235Z AUTO 00000KT 7SM CLR 30/M01 A2987 RMK AO2 T03021014
KBPG 242215Z AUTO 24004KT 10SM CLR 30/M02 A2988 RMK AO2 T03001020
KBPG 242155Z AUTO 00000KT 4SM HZ CLR 31/M03 A2988 RMK AO2 T03061029
KBPG 242135Z AUTO 00000KT 10SM CLR 30/M02 A2988 RMK AO2 T03031023
KBPG 242115Z AUTO 26005KT 10SM CLR 30/M03 A2987 RMK AO2 T03011027
KBPG 242055Z AUTO 21005KT 10SM CLR 30/M03 A2987 RMK AO2 T03001028
KBPG 242035Z AUTO 25006KT 10SM CLR 30/M03 A2987 RMK AO2 T03021028
KBPG 242015Z AUTO 30004KT 10SM CLR 30/M02 A2987 RMK AO2 T03021021
KBPG 241955Z AUTO 00000KT 10SM CLR 30/M02 A2987 RMK AO2 T02951016
KBPG 241935Z AUTO 28004KT 10SM CLR 30/M01 A2988 RMK AO2 T02981012
KBPG 241915Z AUTO 32006KT 10SM CLR 30/M01 A2988 RMK AO2 T02961012
KBPG 241855Z AUTO 35007KT 10SM CLR 29/M01 A2989 RMK AO2 T02921010
KBPG 241835Z AUTO 31008KT 10SM CLR 29/M01 A2990 RMK AO2 T02921007
KBPG 241815Z AUTO 31013KT 10SM CLR 29/00 A2990 RMK AO2 T02921004
KBPG 241755Z AUTO 30006KT 10SM CLR 28/01 A2990 RMK AO2 T02850015 10287 20175
KBPG 241735Z AUTO 32010KT 10SM CLR 28/03 A2991 RMK AO2 T02840025
KBPG 241715Z AUTO 28013KT 10SM CLR 27/04 A2992 RMK AO2 T02740043
KBPG 241655Z AUTO 28007KT 10SM CLR 27/08 A2992 RMK AO2 T02660082
KBPG 241635Z AUTO 26009KT 10SM CLR 26/10 A2992 RMK AO2 T02570101
KBPG 241615Z AUTO 26011KT 10SM CLR 25/11 A2992 RMK AO2 T02540113
KBPG 241555Z AUTO 23011KT 10SM CLR 24/13 A2992 RMK AO2 T02430131
KBPG 241535Z AUTO 23009KT 10SM CLR 23/14 A2992 RMK AO2 T02340140
KBPG 241515Z AUTO 22010G15KT 10SM CLR 23/15 A2992 RMK AO2 T02260146
KBPG 241455Z AUTO 21012KT 10SM CLR 22/16 A2991 RMK AO2 T02200155
KBPG 241435Z AUTO 20012G16KT 10SM CLR 21/16 A2990 RMK AO2 T02060156
KBPG 241415Z AUTO 19011KT 10SM CLR 19/16 A2989 RMK AO2 T01950155
KBPG 241355Z AUTO 17008KT 10SM CLR 18/15 A2989 RMK AO2 T01830153
KBPG 241335Z AUTO 19007KT 10SM CLR 18/15 A2988 RMK AO2 T01750150
KBPG 241315Z AUTO 17008KT 10SM CLR 18/15 A2987 RMK AO2 T01800150
KBPG 241255Z AUTO 19008KT 10SM CLR 18/15 A2986 RMK AO2 T01840151
KBPG 241235Z AUTO 19009KT 10SM CLR 19/15 A2986 RMK AO2 T01870152